MET'MAP v2.0
soon released !

Expected late october,
this new version will be
more efficient, smarter,
and hosted on a brand new
server x3 powerfull...
...and still free !


Not compatible ?
Try the mobile version !

LOG IN : | Subscribe | Disclaimer | Who is Orbifly ? |
ICAO code :

TAF - DAAP Takhamalt - 17 Feb 2020 17:20 UTC - Data Source NOAA   


- Airport Elevation : 1778 ft
- IATA code : VVZ
- No reported NOTAMs.


DAAP - Takhamalt

Latest METAR recorded : 2015/08/11 08:00 DAAP 110800Z /////KT CAVOK 36/10 Q1016
TAF TAF DAAP
Valid from the 17 at 15:00 until the 18 at 00:00 UTC


171400Z 1715/1724 04008KT CAVOK

Source NOAA


MET'MAP, your aeronautical weather chart ! - Copyright ORBIFLY December 2007

Programming & Development : Alexandra Zaïnal
Co-Developer : Marc-Olivier Méhu
Technical & hardware support : Manuel Goepfert
Concept & Financing : Baudouin d'Aumeries